Time;durP1;ratioP1;P1;durP2;ratioP2;P2;SDS_P1;SDS_P2;PMS_P1;PMS_P2;Temp;Humidity;BMP_temperature;BMP_pressure;BME280_temperature;BME280_humidity;BME280_pressure;Samples;Min_cycle;Max_cycle;Signal;HPM_P1;HPM_P2
2021/12/10 00:00:33;;;;;;;6.75;1.90;;;2.50;99.90;;;;;;4889068;29;20029;-79
2021/12/10 00:03:00;;;;;;;11.18;2.33;;;2.50;99.90;;;;;;4887867;29;20097;-79
2021/12/10 00:05:36;;;;;;;9.60;2.47;;;2.40;99.90;;;;;;4888791;29;20021;-79
2021/12/10 00:08:03;;;;;;;7.38;1.92;;;2.30;99.90;;;;;;4888392;29;20032;-78
2021/12/10 00:10:38;;;;;;;9.85;2.20;;;2.20;99.90;;;;;;4885356;29;20039;-78
2021/12/10 00:13:06;;;;;;;7.85;1.55;;;2.10;99.90;;;;;;4890674;29;20041;-78
2021/12/10 00:15:40;;;;;;;5.57;1.90;;;1.80;99.90;;;;;;4889609;29;20039;-78
2021/12/10 00:18:09;;;;;;;5.90;1.85;;;1.70;99.90;;;;;;4904547;29;20045;-79
2021/12/10 00:20:38;;;;;;;4.97;1.90;;;1.80;99.90;;;;;;4888525;29;20047;-79
2021/12/10 00:23:17;;;;;;;6.97;1.95;;;1.70;99.90;;;;;;4890497;29;20037;-78
2021/12/10 00:25:48;;;;;;;7.65;2.05;;;1.80;99.90;;;;;;4889622;29;20120;-78
2021/12/10 00:28:23;;;;;;;6.60;1.90;;;1.80;99.90;;;;;;4890110;29;20279;-78
2021/12/10 00:31:01;;;;;;;7.25;1.95;;;1.60;99.90;;;;;;4889786;29;20044;-78
2021/12/10 00:33:41;;;;;;;9.02;1.80;;;1.50;99.90;;;;;;4890290;29;20051;-77
2021/12/10 00:36:08;;;;;;;5.30;1.70;;;1.40;99.90;;;;;;4904860;29;20383;-80
2021/12/10 00:38:35;;;;;;;6.45;2.17;;;1.30;99.90;;;;;;4895241;29;20021;-77
2021/12/10 00:41:04;;;;;;;6.55;1.83;;;1.10;99.90;;;;;;4921785;29;20047;-76
2021/12/10 00:43:30;;;;;;;7.05;2.05;;;1.00;99.90;;;;;;4918026;29;20045;-77
2021/12/10 00:46:30;;;;;;;6.15;2.33;;;0.90;99.90;;;;;;4908869;29;20051;-77
2021/12/10 00:48:56;;;;;;;5.93;1.52;;;0.70;99.90;;;;;;4909190;29;20252;-78
2021/12/10 00:51:22;;;;;;;6.05;1.77;;;0.90;99.90;;;;;;4908523;29;20140;-78
2021/12/10 00:53:48;;;;;;;7.65;1.90;;;0.80;99.90;;;;;;4908797;29;20040;-78
2021/12/10 00:56:17;;;;;;;7.32;2.13;;;0.70;99.90;;;;;;4884268;29;20021;-78
2021/12/10 00:58:43;;;;;;;6.40;1.90;;;0.80;99.90;;;;;;4888662;29;20043;-79
2021/12/10 01:01:21;;;;;;;6.68;1.55;;;0.60;99.90;;;;;;4888014;29;20041;-79
2021/12/10 01:03:52;;;;;;;5.57;1.63;;;0.60;99.90;;;;;;4889574;29;20041;-78
2021/12/10 01:06:28;;;;;;;5.75;1.80;;;0.50;99.90;;;;;;4889547;29;20033;-77
2021/12/10 01:08:58;;;;;;;7.07;1.80;;;0.50;99.90;;;;;;4901589;29;20201;-77
2021/12/10 01:11:37;;;;;;;6.22;2.20;;;0.60;99.90;;;;;;4887977;29;20122;-77
2021/12/10 01:14:19;;;;;;;7.43;2.03;;;0.50;99.90;;;;;;4887839;29;20044;-78
2021/12/10 01:25:23;;;;;;;8.27;2.08;;;0.50;99.90;;;;;;4890687;29;20073;-77
2021/12/10 01:27:50;;;;;;;4.45;1.40;;;0.50;99.90;;;;;;4886553;29;20080;-78
2021/12/10 01:30:22;;;;;;;5.85;2.10;;;0.60;99.90;;;;;;4871298;29;20073;-77
2021/12/10 01:32:58;;;;;;;4.70;1.80;;;0.40;99.90;;;;;;4889334;29;20033;-77
2021/12/10 01:35:48;;;;;;;6.40;1.95;;;0.40;99.90;;;;;;4888829;29;20036;-78
2021/12/10 01:38:36;;;;;;;7.50;1.70;;;0.30;99.90;;;;;;4887857;29;20048;-78
2021/12/10 01:41:06;;;;;;;5.40;1.58;;;0.10;99.90;;;;;;4884011;29;20036;-78
2021/12/10 01:43:35;;;;;;;6.25;2.03;;;0.00;99.90;;;;;;4902840;29;20032;-79
2021/12/10 01:46:07;;;;;;;5.18;1.95;;;0.00;99.90;;;;;;4888473;29;20076;-80
2021/12/10 01:48:52;;;;;;;5.40;1.65;;;-0.10;99.90;;;;;;4884683;29;20058;-79
2021/12/10 01:51:23;;;;;;;7.25;2.00;;;0.00;99.90;;;;;;4869980;29;20037;-80
2021/12/10 01:53:55;;;;;;;5.25;2.00;;;-0.10;99.90;;;;;;4870402;29;20054;-78
2021/12/10 01:56:28;;;;;;;5.03;1.90;;;-0.10;99.90;;;;;;4869020;29;20033;-78
2021/12/10 01:58:57;;;;;;;4.97;1.55;;;-0.20;99.90;;;;;;4872629;29;20113;-79
2021/12/10 02:01:29;;;;;;;4.57;1.73;;;-0.20;99.90;;;;;;4887801;29;20089;-78
2021/12/10 02:06:53;;;;;;;7.20;1.80;;;-0.20;99.90;;;;;;4887230;29;20252;-77
2021/12/10 02:09:20;;;;;;;6.30;1.83;;;-0.20;99.90;;;;;;4902907;29;20240;-76
2021/12/10 02:11:46;;;;;;;6.18;1.63;;;-0.20;99.90;;;;;;4897245;29;20032;-78
2021/12/10 02:14:14;;;;;;;8.38;1.90;;;-0.20;99.90;;;;;;4906478;29;20028;-79
2021/12/10 02:16:41;;;;;;;9.52;2.25;;;-0.20;99.90;;;;;;4907183;29;20314;-79
2021/12/10 02:19:09;;;;;;;7.15;1.98;;;-0.10;99.90;;;;;;4921379;29;20059;-79
2021/12/10 02:21:37;;;;;;;6.47;1.70;;;-0.10;99.90;;;;;;4905215;29;20080;-78
2021/12/10 02:24:03;;;;;;;4.43;1.70;;;0.10;99.90;;;;;;4885824;29;20358;-78
2021/12/10 02:26:40;;;;;;;5.72;1.70;;;0.10;99.90;;;;;;4871360;29;20024;-77
2021/12/10 02:29:24;;;;;;;7.30;1.90;;;0.10;99.90;;;;;;4888351;29;20323;-79
2021/12/10 02:32:09;;;;;;;6.88;1.70;;;0.10;99.90;;;;;;4867761;29;20169;-77
2021/12/10 02:34:38;;;;;;;6.97;1.75;;;0.10;99.90;;;;;;4887739;29;20037;-78
2021/12/10 02:37:07;;;;;;;5.85;1.50;;;0.20;99.90;;;;;;4882881;29;20212;-79
2021/12/10 02:39:36;;;;;;;3.60;1.27;;;0.10;99.90;;;;;;4868926;29;20030;-78
2021/12/10 02:42:26;;;;;;;4.25;1.40;;;0.00;99.90;;;;;;4879627;29;20115;-79
2021/12/10 02:44:52;;;;;;;5.38;1.42;;;0.10;99.90;;;;;;4888058;29;20029;-77
2021/12/10 02:47:20;;;;;;;5.00;1.27;;;0.10;99.90;;;;;;4888653;29;20033;-78
2021/12/10 02:49:46;;;;;;;6.53;1.40;;;0.10;99.90;;;;;;4884245;29;20116;-80
2021/12/10 02:52:33;;;;;;;5.15;1.63;;;0.10;99.90;;;;;;4885465;29;20485;-79
2021/12/10 02:54:59;;;;;;;8.07;1.50;;;0.10;99.90;;;;;;4885669;29;20040;-79
2021/12/10 02:57:28;;;;;;;9.05;1.80;;;0.10;99.90;;;;;;4887712;29;20349;-80
2021/12/10 02:59:54;;;;;;;7.55;1.25;;;0.20;99.90;;;;;;4871784;29;20033;-78
2021/12/10 03:02:23;;;;;;;5.80;1.38;;;0.30;99.90;;;;;;4867744;29;20037;-78
2021/12/10 03:04:49;;;;;;;2.42;1.50;;;0.30;99.90;;;;;;4869967;29;20033;-78
2021/12/10 03:07:25;;;;;;;4.22;1.50;;;0.20;99.90;;;;;;4888732;29;20103;-79
2021/12/10 03:09:53;;;;;;;8.35;1.55;;;0.10;99.90;;;;;;4877509;29;20041;-79
2021/12/10 03:12:21;;;;;;;7.70;2.07;;;0.00;99.90;;;;;;4885932;29;20044;-79
2021/12/10 03:14:51;;;;;;;5.78;1.52;;;-0.10;99.90;;;;;;4888216;29;20263;-79
2021/12/10 03:23:30;;;;;;;6.63;1.58;;;-0.20;99.90;;;;;;4885486;29;20108;-79
2021/12/10 03:26:05;;;;;;;4.57;1.60;;;-0.20;99.90;;;;;;4883892;29;20029;-79
2021/12/10 03:31:23;;;;;;;4.60;1.67;;;-0.20;99.90;;;;;;4884359;29;20041;-78
2021/12/10 03:33:50;;;;;;;7.43;1.90;;;-0.20;99.90;;;;;;4871209;29;20066;-80
2021/12/10 03:36:21;;;;;;;5.07;1.88;;;-0.20;99.90;;;;;;4872015;29;20052;-79
2021/12/10 03:39:13;;;;;;;4.32;1.55;;;-0.20;99.90;;;;;;4871353;29;20233;-79
2021/12/10 03:41:45;;;;;;;6.55;2.10;;;-0.20;99.90;;;;;;4875694;29;20036;-80
2021/12/10 03:44:27;;;;;;;7.97;2.55;;;-0.30;99.90;;;;;;4874332;29;20044;-78
2021/12/10 03:46:57;;;;;;;8.20;2.72;;;-0.30;99.90;;;;;;4873859;29;20096;-79
2021/12/10 03:49:24;;;;;;;8.15;2.10;;;-0.30;99.90;;;;;;4868431;29;20134;-79
2021/12/10 03:51:55;;;;;;;6.20;1.73;;;-0.40;99.90;;;;;;4852873;29;20110;-78
2021/12/10 03:54:24;;;;;;;6.65;2.78;;;-0.40;99.90;;;;;;4855817;29;20047;-78
2021/12/10 03:56:51;;;;;;;5.00;2.17;;;-0.40;99.90;;;;;;4877192;29;20037;-76
2021/12/10 03:59:19;;;;;;;6.80;2.10;;;-0.30;99.90;;;;;;4883466;29;20036;-76
2021/12/10 04:01:50;;;;;;;8.90;2.08;;;-0.30;99.90;;;;;;4897108;29;20074;-78
2021/12/10 04:04:21;;;;;;;5.82;1.75;;;-0.40;99.90;;;;;;4870627;29;20089;-78
2021/12/10 04:06:48;;;;;;;5.53;1.77;;;-0.30;99.90;;;;;;4870345;29;20300;-78
2021/12/10 04:09:14;;;;;;;4.95;2.67;;;-0.30;99.90;;;;;;4885221;29;20041;-78
2021/12/10 04:11:41;;;;;;;7.85;2.63;;;-0.30;99.90;;;;;;4889522;29;20100;-78
2021/12/10 04:14:07;;;;;;;7.25;2.90;;;-0.20;99.90;;;;;;4890710;29;20319;-78
2021/12/10 04:16:34;;;;;;;8.52;2.95;;;-0.10;99.90;;;;;;4889024;29;20057;-79
2021/12/10 04:19:07;;;;;;;10.38;3.30;;;-0.20;99.90;;;;;;4888742;29;20060;-77
2021/12/10 04:21:59;;;;;;;10.38;3.30;;;0.10;99.90;;;;;;4888818;29;20316;-79
2021/12/10 04:24:29;;;;;;;12.88;4.57;;;0.10;99.90;;;;;;4888761;29;20041;-78
2021/12/10 04:26:55;;;;;;;12.18;3.25;;;0.20;99.90;;;;;;4886454;29;20040;-78
2021/12/10 04:29:24;;;;;;;8.68;3.60;;;0.30;99.90;;;;;;4872124;29;20112;-79
2021/12/10 04:31:53;;;;;;;7.72;3.35;;;0.30;99.90;;;;;;4871543;29;20036;-80
2021/12/10 04:34:20;;;;;;;;;;;0.30;99.90;;;;;;4872870;29;20021;-78
2021/12/10 04:36:46;;;;;;;9.65;2.97;;;0.30;99.90;;;;;;4870640;29;19916;-80
2021/12/10 04:43:00;;;;;;;7.20;3.58;;;0.30;99.90;;;;;;4903039;29;20362;-79
2021/12/10 04:45:26;;;;;;;10.40;3.95;;;0.40;99.90;;;;;;4907128;29;20037;-80
2021/12/10 04:47:52;;;;;;;10.45;4.30;;;0.30;99.90;;;;;;4923642;29;20215;-78
2021/12/10 04:50:21;;;;;;;7.00;4.15;;;0.20;99.90;;;;;;4923550;29;20067;-79
2021/12/10 04:52:47;;;;;;;8.30;3.90;;;0.30;99.90;;;;;;4907270;29;20109;-80
2021/12/10 04:55:14;;;;;;;12.20;5.60;;;0.30;99.90;;;;;;4908990;29;20091;-79
2021/12/10 04:57:41;;;;;;;9.05;5.15;;;0.30;99.90;;;;;;4888006;29;20093;-80
2021/12/10 05:00:10;;;;;;;11.50;5.22;;;0.30;99.90;;;;;;4889998;29;20033;-78
2021/12/10 05:02:37;;;;;;;10.15;4.30;;;0.40;99.90;;;;;;4888453;29;20064;-77
2021/12/10 05:05:05;;;;;;;11.65;4.97;;;0.30;99.90;;;;;;4904260;29;20054;-78
2021/12/10 05:07:35;;;;;;;10.97;4.97;;;0.30;99.90;;;;;;4889685;29;20081;-77
2021/12/10 05:10:01;;;;;;;12.07;4.88;;;0.20;99.90;;;;;;4884813;29;20025;-77
2021/12/10 05:12:27;;;;;;;9.38;5.22;;;0.20;99.90;;;;;;4896348;29;20035;-78
2021/12/10 05:14:59;;;;;;;10.30;4.75;;;0.10;99.90;;;;;;4904482;29;20266;-78
2021/12/10 05:17:28;;;;;;;13.20;5.50;;;0.00;99.90;;;;;;4889391;29;20074;-78
2021/12/10 05:19:54;;;;;;;10.23;4.72;;;-0.20;99.90;;;;;;4889432;29;20097;-79
2021/12/10 05:22:20;;;;;;;10.32;5.22;;;-0.40;99.90;;;;;;4903356;29;20272;-79
2021/12/10 05:24:46;;;;;;;11.88;5.15;;;-0.50;99.90;;;;;;4888240;29;20048;-78
2021/12/10 05:27:12;;;;;;;13.25;5.55;;;-0.70;99.90;;;;;;4889655;29;20020;-79
2021/12/10 05:29:53;;;;;;;12.05;5.40;;;-0.70;99.90;;;;;;4889366;29;20100;-78
2021/12/10 05:32:19;;;;;;;11.45;5.72;;;-0.80;99.90;;;;;;4889252;29;20044;-78
2021/12/10 05:34:46;;;;;;;12.68;5.25;;;-0.80;99.90;;;;;;4888940;29;20278;-78
2021/12/10 05:37:37;;;;;;;15.07;6.10;;;-0.80;99.90;;;;;;4889044;29;20260;-77
2021/12/10 05:40:05;;;;;;;13.55;6.07;;;-0.90;99.90;;;;;;4886473;29;20032;-77
2021/12/10 05:42:31;;;;;;;15.73;6.30;;;-0.80;99.90;;;;;;4878365;29;20268;-78
2021/12/10 05:44:56;;;;;;;13.80;6.10;;;-0.90;99.90;;;;;;4902126;29;20024;-77
2021/12/10 05:47:22;;;;;;;14.10;6.72;;;-1.00;99.90;;;;;;4887966;29;20028;-78
2021/12/10 05:49:48;;;;;;;13.15;5.53;;;-1.00;99.90;;;;;;4887518;29;20036;-77
2021/12/10 05:52:15;;;;;;;13.13;6.13;;;-0.80;99.90;;;;;;4900264;29;20068;-77
2021/12/10 05:54:43;;;;;;;13.90;6.32;;;-0.60;99.90;;;;;;4888555;29;20111;-79
2021/12/10 05:57:10;;;;;;;11.98;5.70;;;-0.50;99.90;;;;;;4888076;29;20035;-78
2021/12/10 05:59:43;;;;;;;14.90;6.00;;;-0.40;99.90;;;;;;4899804;29;20041;-76
2021/12/10 06:02:12;;;;;;;9.30;5.20;;;-0.40;99.90;;;;;;4886510;29;20064;-77
2021/12/10 06:04:38;;;;;;;12.15;5.82;;;-0.40;99.90;;;;;;4888659;29;20064;-77
2021/12/10 06:07:06;;;;;;;10.15;6.07;;;-0.40;99.90;;;;;;4888323;29;20094;-77
2021/12/10 06:09:33;;;;;;;13.23;5.90;;;-0.30;99.90;;;;;;4883579;29;20036;-79
2021/12/10 06:11:59;;;;;;;17.90;5.47;;;-0.30;99.90;;;;;;4884274;29;21217;-80
2021/12/10 06:14:25;;;;;;;11.88;6.18;;;-0.30;99.90;;;;;;4889001;29;20041;-79
2021/12/10 06:16:54;;;;;;;16.58;5.68;;;-0.30;99.90;;;;;;4881197;29;20362;-78
2021/12/10 06:19:22;;;;;;;16.42;7.10;;;-0.20;99.90;;;;;;4888201;29;20109;-77
2021/12/10 06:21:48;;;;;;;18.08;6.68;;;-0.20;99.90;;;;;;4887698;29;20029;-81
2021/12/10 06:24:14;;;;;;;16.20;7.18;;;-0.30;99.90;;;;;;4886943;29;20040;-77
2021/12/10 06:26:40;;;;;;;12.45;6.15;;;-0.30;99.90;;;;;;4887398;29;20029;-78
2021/12/10 06:29:06;;;;;;;15.02;6.07;;;-0.30;99.90;;;;;;4887370;29;20058;-78
2021/12/10 06:31:33;;;;;;;12.52;6.30;;;-0.30;99.90;;;;;;4888081;29;20048;-78
2021/12/10 06:34:00;;;;;;;14.85;6.40;;;-0.30;99.90;;;;;;4887368;29;20088;-80
2021/12/10 06:36:27;;;;;;;11.95;5.90;;;-0.10;99.90;;;;;;4888310;29;20037;-78
2021/12/10 06:38:53;;;;;;;17.80;7.03;;;-0.10;99.90;;;;;;4887883;29;20298;-78
2021/12/10 06:41:19;;;;;;;11.30;6.30;;;-0.10;99.90;;;;;;4888361;29;20037;-79
2021/12/10 06:43:46;;;;;;;15.25;7.47;;;0.00;99.90;;;;;;4886658;29;20036;-78
2021/12/10 06:46:13;;;;;;;13.57;5.93;;;0.00;99.90;;;;;;4900494;29;20037;-80
2021/12/10 06:48:39;;;;;;;14.40;6.35;;;-0.10;99.90;;;;;;4884054;29;20068;-78
2021/12/10 06:51:19;;;;;;;14.10;6.75;;;-0.10;99.90;;;;;;4884422;29;20029;-78
2021/12/10 06:53:48;;;;;;;15.75;6.30;;;-0.20;99.90;;;;;;4887908;29;20041;-78
2021/12/10 06:56:16;;;;;;;17.17;7.95;;;-0.30;99.90;;;;;;4881739;29;20084;-78
2021/12/10 06:58:43;;;;;;;13.80;7.53;;;-0.30;99.90;;;;;;4868904;29;20335;-78
2021/12/10 07:01:19;;;;;;;15.95;7.32;;;-0.30;99.90;;;;;;4898762;29;20044;-78
2021/12/10 07:03:46;;;;;;;14.40;7.22;;;-0.20;99.90;;;;;;4885662;29;20037;-79
2021/12/10 07:06:13;;;;;;;13.52;6.93;;;-0.20;99.90;;;;;;4885082;29;20055;-77
2021/12/10 07:08:41;;;;;;;13.88;6.93;;;-0.20;99.90;;;;;;4871007;29;20025;-77
2021/12/10 07:11:09;;;;;;;18.40;7.80;;;-0.10;99.90;;;;;;4903947;29;20100;-80
2021/12/10 07:13:38;;;;;;;26.40;9.80;;;-0.10;99.90;;;;;;4928865;29;20037;-78
2021/12/10 07:16:05;;;;;;;28.20;9.90;;;-0.10;99.90;;;;;;4903034;29;20077;-77
2021/12/10 07:18:31;;;;;;;23.77;9.20;;;0.00;99.90;;;;;;4880135;29;20053;-79
2021/12/10 07:20:58;;;;;;;21.52;9.02;;;-0.10;99.90;;;;;;4890781;29;20033;-79
2021/12/10 07:23:24;;;;;;;18.77;8.10;;;-0.10;99.90;;;;;;4891682;29;20109;-78
2021/12/10 07:25:51;;;;;;;16.25;7.85;;;-0.10;99.90;;;;;;4885177;29;20104;-77
2021/12/10 07:28:18;;;;;;;15.88;7.70;;;0.00;99.90;;;;;;4889321;29;20029;-79
2021/12/10 07:30:47;;;;;;;17.13;7.78;;;0.00;99.90;;;;;;4889929;29;20040;-77
2021/12/10 07:33:14;;;;;;;15.88;7.65;;;0.00;99.90;;;;;;4885892;29;20263;-80
2021/12/10 07:35:40;;;;;;;17.85;8.85;;;0.10;99.90;;;;;;4888839;29;20219;-78
2021/12/10 07:38:06;;;;;;;18.00;7.93;;;0.20;99.90;;;;;;4889009;29;20037;-78
2021/12/10 07:40:34;;;;;;;17.10;7.57;;;0.20;99.90;;;;;;4891240;29;20188;-79
2021/12/10 07:43:00;;;;;;;17.45;7.45;;;0.30;99.90;;;;;;4870311;29;20036;-78
2021/12/10 07:45:26;;;;;;;13.85;7.25;;;0.40;99.90;;;;;;4890377;29;20066;-79
2021/12/10 07:47:55;;;;;;;16.35;7.78;;;0.50;99.90;;;;;;4889790;29;20039;-77
2021/12/10 07:50:27;;;;;;;17.50;7.80;;;0.50;99.90;;;;;;4887353;29;20032;-79
2021/12/10 07:52:55;;;;;;;13.35;6.72;;;0.60;99.90;;;;;;4890466;29;20037;-78
2021/12/10 07:55:24;;;;;;;13.23;6.43;;;0.60;99.90;;;;;;4890754;29;20044;-77
2021/12/10 07:57:51;;;;;;;;;;;0.70;99.90;;;;;;4890716;29;20081;-78
2021/12/10 08:00:19;;;;;;;15.30;7.13;;;0.70;99.90;;;;;;4904923;29;19907;-80
2021/12/10 08:02:46;;;;;;;13.63;6.20;;;0.80;99.90;;;;;;4889763;29;20075;-80
2021/12/10 08:05:14;;;;;;;13.73;6.43;;;0.80;99.90;;;;;;4890442;29;20189;-80
2021/12/10 08:07:40;;;;;;;14.95;6.53;;;0.90;99.90;;;;;;4890136;29;20307;-78
2021/12/10 08:10:09;;;;;;;11.85;5.78;;;0.90;99.90;;;;;;4905081;29;20035;-79
2021/12/10 08:12:35;;;;;;;;;;;0.90;99.90;;;;;;4892337;29;20049;-79
2021/12/10 08:15:01;;;;;;;16.75;6.65;;;0.90;99.90;;;;;;4907463;29;19915;-79
2021/12/10 08:17:26;;;;;;;12.98;6.35;;;1.00;99.90;;;;;;4907613;29;20048;-79
2021/12/10 08:19:53;;;;;;;11.20;5.72;;;1.00;99.90;;;;;;4907096;29;20057;-79
2021/12/10 08:22:19;;;;;;;11.63;6.78;;;1.10;99.90;;;;;;4907753;29;20299;-80
2021/12/10 08:24:45;;;;;;;13.05;6.07;;;1.10;99.90;;;;;;4919666;29;20029;-77
2021/12/10 08:27:13;;;;;;;13.63;6.80;;;1.20;99.90;;;;;;4889798;29;20092;-77
2021/12/10 08:29:42;;;;;;;14.10;5.80;;;1.20;99.90;;;;;;4889632;29;20036;-79
2021/12/10 08:32:12;;;;;;;14.52;6.72;;;1.30;99.90;;;;;;4884714;29;20674;-79
2021/12/10 08:34:38;;;;;;;11.45;5.90;;;1.30;99.90;;;;;;4880493;29;20068;-80
2021/12/10 08:37:04;;;;;;;11.95;6.53;;;1.40;99.90;;;;;;4889972;29;20031;-78
2021/12/10 08:39:30;;;;;;;15.82;6.80;;;1.40;99.90;;;;;;4889669;29;20366;-78
2021/12/10 08:41:59;;;;;;;12.10;5.72;;;1.50;99.90;;;;;;4888413;29;20124;-78
2021/12/10 08:44:27;;;;;;;11.65;5.85;;;1.60;99.90;;;;;;4872051;29;20323;-77
2021/12/10 08:46:53;;;;;;;13.63;6.18;;;1.60;99.90;;;;;;4902528;29;20041;-78
2021/12/10 08:49:19;;;;;;;11.75;5.32;;;1.80;99.90;;;;;;4889262;29;20044;-78
2021/12/10 08:51:51;;;;;;;12.18;5.05;;;1.90;99.90;;;;;;4898518;29;20283;-80
2021/12/10 08:54:18;;;;;;;8.10;3.85;;;1.90;99.90;;;;;;4890609;29;20033;-80
2021/12/10 08:56:47;;;;;;;7.97;3.88;;;2.00;99.90;;;;;;4890942;29;20207;-79
2021/12/10 08:59:14;;;;;;;;;;;2.10;99.90;;;;;;4891062;29;20021;-80
2021/12/10 09:01:44;;;;;;;6.78;3.65;;;2.10;99.90;;;;;;4869909;29;19935;-79
2021/12/10 09:04:12;;;;;;;7.15;4.15;;;2.20;99.90;;;;;;4879692;29;20343;-80
2021/12/10 09:06:43;;;;;;;6.57;3.70;;;2.20;99.90;;;;;;4884582;29;20040;-79
2021/12/10 09:09:12;;;;;;;7.68;3.67;;;2.30;99.90;;;;;;4888351;29;20032;-79
2021/12/10 09:12:00;;;;;;;8.23;3.58;;;2.40;99.90;;;;;;4875946;29;20056;-76
2021/12/10 09:14:31;;;;;;;6.30;3.40;;;2.60;99.90;;;;;;4899915;29;20039;-77
2021/12/10 09:16:58;;;;;;;8.25;3.35;;;2.70;99.90;;;;;;4898113;29;20045;-79
2021/12/10 09:19:25;;;;;;;5.78;3.00;;;2.80;99.90;;;;;;4888518;29;20057;-79
2021/12/10 09:21:51;;;;;;;8.02;3.80;;;2.90;99.90;;;;;;4888724;29;20021;-77
2021/12/10 09:24:20;;;;;;;6.93;3.58;;;2.90;99.90;;;;;;4887882;29;20297;-78
2021/12/10 09:26:52;;;;;;;9.48;3.88;;;2.90;99.90;;;;;;4887256;29;20025;-78
2021/12/10 09:29:18;;;;;;;6.53;3.38;;;2.80;99.90;;;;;;4889332;29;20100;-80
2021/12/10 09:31:45;;;;;;;8.43;3.80;;;2.80;99.90;;;;;;4899302;29;20048;-79
2021/12/10 09:34:15;;;;;;;9.93;3.92;;;2.80;99.90;;;;;;4880871;29;20025;-78
2021/12/10 09:36:42;;;;;;;6.80;3.70;;;2.80;99.90;;;;;;4885468;29;20081;-79
2021/12/10 09:39:09;;;;;;;10.07;4.10;;;2.80;99.90;;;;;;4884258;29;20049;-76
2021/12/10 09:41:36;;;;;;;9.80;4.03;;;2.80;99.90;;;;;;4885597;29;20315;-80
2021/12/10 09:44:07;;;;;;;8.65;4.05;;;2.80;99.90;;;;;;4894078;29;20037;-78
2021/12/10 09:46:37;;;;;;;10.30;4.38;;;2.90;99.90;;;;;;4888179;29;20068;-80
2021/12/10 09:49:06;;;;;;;11.20;4.72;;;2.90;99.90;;;;;;4888232;29;20045;-80
2021/12/10 09:51:49;;;;;;;7.45;4.50;;;2.90;99.90;;;;;;4887476;29;20032;-77
2021/12/10 09:54:19;;;;;;;10.25;4.57;;;3.00;99.90;;;;;;4884690;29;20146;-77
2021/12/10 09:56:50;;;;;;;10.00;4.72;;;3.10;99.90;;;;;;4887896;29;20327;-79
2021/12/10 09:59:17;;;;;;;13.82;5.72;;;3.20;99.90;;;;;;4884376;29;20032;-79
2021/12/10 10:01:47;;;;;;;11.20;5.30;;;3.20;99.90;;;;;;4887537;29;20041;-79
2021/12/10 10:04:17;;;;;;;11.85;5.47;;;3.20;99.90;;;;;;4881644;29;20208;-77
2021/12/10 10:06:48;;;;;;;11.05;5.70;;;3.20;99.90;;;;;;4882588;29;20033;-79
2021/12/10 10:09:16;;;;;;;9.05;4.30;;;3.30;99.90;;;;;;4878380;29;20346;-79
2021/12/10 10:11:43;;;;;;;10.75;5.18;;;3.30;99.90;;;;;;4877530;29;20037;-77
2021/12/10 10:14:09;;;;;;;10.32;4.30;;;3.50;99.90;;;;;;4881698;29;20095;-77
2021/12/10 10:16:39;;;;;;;13.82;5.18;;;3.50;99.90;;;;;;4873481;29;20037;-76
2021/12/10 10:19:05;;;;;;;9.27;3.97;;;3.70;99.90;;;;;;4886320;29;20049;-76
2021/12/10 10:21:37;;;;;;;11.27;5.00;;;3.80;99.90;;;;;;4883787;29;20025;-78
2021/12/10 10:24:05;;;;;;;11.48;4.97;;;4.00;99.90;;;;;;4868707;29;20061;-77
2021/12/10 10:26:42;;;;;;;8.52;4.32;;;4.10;99.90;;;;;;4879967;29;20093;-77
2021/12/10 10:29:13;;;;;;;9.45;4.82;;;4.10;99.90;;;;;;4886897;29;20032;-75
2021/12/10 10:31:46;;;;;;;7.50;3.85;;;4.00;99.90;;;;;;4873125;29;20068;-76
2021/12/10 10:34:13;;;;;;;9.27;3.80;;;3.90;99.90;;;;;;4863804;29;20034;-76
2021/12/10 10:36:40;;;;;;;10.03;4.43;;;3.80;99.90;;;;;;4864988;29;20034;-76
2021/12/10 10:39:14;;;;;;;15.50;4.38;;;3.80;99.90;;;;;;4864860;29;20678;-77
2021/12/10 10:41:45;;;;;;;8.68;4.13;;;3.90;99.90;;;;;;4850756;29;20058;-78
2021/12/10 10:44:11;;;;;;;8.52;3.90;;;4.00;99.90;;;;;;4863313;29;20311;-76
2021/12/10 10:46:37;;;;;;;8.48;3.97;;;4.00;99.90;;;;;;4874958;29;20063;-75
2021/12/10 10:49:05;;;;;;;10.90;4.45;;;4.10;99.90;;;;;;4881922;29;20049;-79
2021/12/10 10:51:36;;;;;;;10.45;4.75;;;4.10;99.90;;;;;;4875030;29;20228;-76
2021/12/10 10:54:06;;;;;;;11.75;4.82;;;4.30;99.90;;;;;;4873488;29;20260;-80
2021/12/10 10:56:50;;;;;;;11.43;5.05;;;4.40;99.90;;;;;;4872151;29;20376;-78
2021/12/10 10:59:25;;;;;;;11.32;4.85;;;4.50;99.90;;;;;;4855089;29;20034;-78
2021/12/10 11:02:08;;;;;;;9.82;4.68;;;4.50;99.90;;;;;;4862063;29;20049;-79
2021/12/10 11:04:38;;;;;;;11.45;4.05;;;4.50;99.90;;;;;;4872364;29;20026;-77
2021/12/10 11:07:07;;;;;;;8.18;3.92;;;4.40;99.90;;;;;;4872790;29;20025;-78
2021/12/10 11:09:38;;;;;;;8.07;3.95;;;4.60;99.90;;;;;;4866744;29;20033;-78
2021/12/10 11:12:08;;;;;;;12.77;4.32;;;4.60;99.90;;;;;;4870546;29;20045;-79
2021/12/10 11:14:39;;;;;;;10.35;3.47;;;4.60;99.90;;;;;;4870794;29;20102;-76
2021/12/10 11:17:16;;;;;;;12.82;4.20;;;4.80;99.90;;;;;;4886258;29;20105;-78
2021/12/10 11:19:51;;;;;;;7.63;2.58;;;4.80;99.90;;;;;;4890884;29;20052;-78
2021/12/10 11:22:18;;;;;;;9.02;2.83;;;4.70;99.90;;;;;;4889799;29;20041;-78
2021/12/10 11:24:54;;;;;;;7.18;2.13;;;4.50;99.90;;;;;;4905665;29;20025;-77
2021/12/10 11:27:30;;;;;;;4.97;1.55;;;4.50;99.90;;;;;;4890945;29;20300;-78
2021/12/10 11:30:02;;;;;;;5.40;2.20;;;4.60;99.90;;;;;;4881714;29;20029;-76
2021/12/10 11:32:43;;;;;;;3.60;1.25;;;4.60;99.90;;;;;;4852738;29;20049;-79
2021/12/10 11:35:18;;;;;;;2.95;0.98;;;4.60;99.90;;;;;;4865915;29;20219;-78
2021/12/10 11:37:44;;;;;;;2.90;0.82;;;4.60;99.90;;;;;;4887182;29;20034;-79
2021/12/10 11:40:35;;;;;;;2.85;0.98;;;4.60;99.90;;;;;;4872007;29;20041;-80
2021/12/10 11:43:32;;;;;;;1.83;0.60;;;4.60;99.90;;;;;;4869093;29;20045;-78
2021/12/10 11:48:38;;;;;;;4.85;0.95;;;4.50;99.90;;;;;;4870890;29;20041;-79
2021/12/10 11:51:13;;;;;;;2.58;0.75;;;4.40;99.90;;;;;;4870161;29;20029;-79
2021/12/10 11:53:53;;;;;;;3.20;1.08;;;4.40;99.90;;;;;;4868830;29;20371;-77
2021/12/10 11:56:20;;;;;;;2.38;0.52;;;4.40;99.90;;;;;;4870923;29;20041;-78
2021/12/10 11:59:05;;;;;;;2.17;0.52;;;4.10;99.90;;;;;;4871864;29;20038;-77
2021/12/10 12:01:33;;;;;;;2.75;0.50;;;3.80;99.90;;;;;;4870180;29;20041;-80
2021/12/10 12:04:18;;;;;;;2.25;0.70;;;3.70;99.90;;;;;;4871635;29;20082;-78
2021/12/10 12:06:49;;;;;;;2.25;0.60;;;3.60;99.90;;;;;;4884573;29;20036;-78
2021/12/10 12:09:38;;;;;;;1.90;0.70;;;3.30;99.90;;;;;;4869781;29;20335;-78
2021/12/10 12:12:10;;;;;;;2.00;0.70;;;3.10;99.90;;;;;;4870817;29;20044;-79
2021/12/10 12:14:36;;;;;;;3.20;0.85;;;3.10;99.90;;;;;;4871529;29;20045;-78
2021/12/10 12:17:05;;;;;;;2.60;0.98;;;3.00;99.90;;;;;;4882744;29;20197;-77
2021/12/10 12:19:31;;;;;;;3.15;0.90;;;3.00;99.90;;;;;;4870797;29;20047;-78
2021/12/10 12:22:14;;;;;;;5.28;1.50;;;3.00;99.90;;;;;;4871348;29;20181;-77
2021/12/10 12:25:07;;;;;;;5.93;1.48;;;3.00;99.90;;;;;;4870649;29;20227;-78
2021/12/10 12:27:33;;;;;;;5.43;1.80;;;2.90;99.90;;;;;;4871692;29;20030;-78
2021/12/10 12:30:04;;;;;;;4.00;1.38;;;3.00;99.90;;;;;;4868645;29;20064;-78
2021/12/10 12:32:37;;;;;;;3.78;1.50;;;3.00;99.90;;;;;;4890338;29;20120;-79
2021/12/10 12:35:36;;;;;;;4.40;1.58;;;2.70;99.90;;;;;;4888765;29;20339;-78
2021/12/10 12:38:20;;;;;;;2.95;1.40;;;2.60;99.90;;;;;;4909184;29;20100;-78
2021/12/10 12:41:02;;;;;;;5.93;1.63;;;2.50;99.90;;;;;;4897883;29;20041;-79
2021/12/10 12:43:28;;;;;;;4.55;1.70;;;2.60;99.90;;;;;;4890286;29;20040;-78
2021/12/10 12:46:03;;;;;;;3.92;1.92;;;2.60;99.90;;;;;;4903729;29;20358;-78
2021/12/10 12:48:30;;;;;;;4.22;1.88;;;2.70;99.90;;;;;;4890367;29;20208;-78
2021/12/10 12:51:01;;;;;;;4.15;1.77;;;2.60;99.90;;;;;;4889159;29;20099;-76
2021/12/10 12:53:30;;;;;;;4.03;1.90;;;2.70;99.90;;;;;;4890204;29;20040;-78
2021/12/10 12:56:00;;;;;;;3.92;1.23;;;2.80;99.90;;;;;;4889409;29;20029;-79
2021/12/10 12:58:31;;;;;;;4.25;1.55;;;2.70;99.90;;;;;;4891824;29;20033;-77
2021/12/10 13:01:17;;;;;;;4.30;1.30;;;2.60;99.90;;;;;;4889895;29;20363;-78
2021/12/10 13:03:52;;;;;;;4.25;1.50;;;2.60;99.90;;;;;;4892079;29;20096;-80
2021/12/10 13:06:33;;;;;;;4.60;1.70;;;2.60;99.90;;;;;;4888629;29;20036;-78
2021/12/10 13:09:10;;;;;;;4.70;1.55;;;2.80;99.90;;;;;;4884866;29;20125;-78
2021/12/10 13:12:05;;;;;;;3.85;1.60;;;2.90;99.90;;;;;;4889567;29;20081;-78
2021/12/10 13:15:02;;;;;;;6.57;1.80;;;2.90;99.90;;;;;;4887100;29;20060;-78
2021/12/10 13:17:37;;;;;;;4.68;1.60;;;3.00;99.90;;;;;;4889270;29;20327;-77
2021/12/10 13:20:12;;;;;;;4.00;1.60;;;3.00;99.90;;;;;;4888884;29;20057;-80
2021/12/10 13:22:39;;;;;;;4.57;1.80;;;2.90;99.90;;;;;;4887802;29;20346;-79
2021/12/10 13:25:16;;;;;;;4.45;2.03;;;3.00;99.90;;;;;;4903663;29;20032;-78
2021/12/10 13:27:42;;;;;;;4.72;1.77;;;3.00;99.90;;;;;;4888866;29;20088;-78
2021/12/10 13:30:14;;;;;;;5.22;1.83;;;3.00;99.90;;;;;;4890008;29;20043;-78
2021/12/10 13:32:45;;;;;;;4.10;1.85;;;3.00;99.90;;;;;;4891084;29;20041;-78
2021/12/10 13:35:15;;;;;;;4.78;2.13;;;3.00;99.90;;;;;;4883298;29;20073;-77